createdAt,value
2022-10-05T00:00:52.877Z,99098.48
2022-10-05T00:03:37.192Z,99091.24
2022-10-05T00:06:13.330Z,99099.77
2022-10-05T00:08:45.897Z,99095.33
2022-10-05T00:11:19.653Z,99091.51
2022-10-05T00:13:53.038Z,99088.56
2022-10-05T00:16:25.409Z,99085.46
2022-10-05T00:19:00.530Z,99079.85
2022-10-05T00:21:34.629Z,99078.95
2022-10-05T00:24:15.890Z,99081.61
2022-10-05T00:26:52.660Z,99078.43
2022-10-05T00:29:29.330Z,99075.02
2022-10-05T00:32:02.888Z,99064.84
2022-10-05T00:34:36.001Z,99058.94
2022-10-05T00:37:08.789Z,99053.50
2022-10-05T00:39:42.000Z,99046.86
2022-10-05T00:42:37.660Z,99039.93
2022-10-05T00:45:14.703Z,99036.92
2022-10-05T00:48:02.046Z,99033.42
2022-10-05T00:51:02.496Z,99034.84
2022-10-05T00:53:44.700Z,99039.76
2022-10-05T00:56:40.728Z,99035.23
2022-10-05T00:59:23.808Z,99031.89
2022-10-05T01:02:04.034Z,99030.86
2022-10-05T01:04:44.153Z,99033.63
2022-10-05T01:07:24.985Z,99032.61
2022-10-05T01:10:04.531Z,99032.33
2022-10-05T01:12:44.528Z,99029.64
2022-10-05T01:15:28.193Z,99031.23
2022-10-05T01:18:09.880Z,99039.27
2022-10-05T01:20:51.632Z,99051.45
2022-10-05T01:23:55.747Z,99052.08
2022-10-05T01:26:45.186Z,99042.12
2022-10-05T01:29:23.483Z,99035.67
2022-10-05T01:32:01.437Z,99026.42
2022-10-05T01:34:40.885Z,99019.76
2022-10-05T01:37:22.972Z,99011.94
2022-10-05T01:40:03.949Z,99008.24
2022-10-05T01:42:43.509Z,99010.59
2022-10-05T01:45:24.885Z,99013.28
2022-10-05T01:48:05.042Z,99002.02
2022-10-05T01:50:48.594Z,98996.08
2022-10-05T01:53:32.787Z,98991.74
2022-10-05T01:56:13.033Z,98989.07
2022-10-05T01:58:57.181Z,98993.95
2022-10-05T02:01:37.062Z,98995.21
2022-10-05T02:04:35.661Z,98997.35
2022-10-05T02:07:15.182Z,99006.52
2022-10-05T02:09:54.121Z,99009.66
2022-10-05T02:12:31.082Z,99006.63
2022-10-05T02:15:10.432Z,99001.80
2022-10-05T02:17:47.196Z,99001.21
2022-10-05T02:20:25.882Z,99005.17
2022-10-05T02:23:03.625Z,99009.09
2022-10-05T02:25:38.587Z,99015.80
2022-10-05T02:28:14.392Z,99020.83
2022-10-05T02:30:52.494Z,99020.84
2022-10-05T02:33:30.437Z,99017.25
2022-10-05T02:36:09.366Z,99017.23
2022-10-05T02:38:57.174Z,99015.28
2022-10-05T02:41:40.614Z,99014.84
2022-10-05T02:44:20.052Z,99013.95
2022-10-05T02:47:04.493Z,99018.43
2022-10-05T02:49:45.641Z,99019.98
2022-10-05T02:52:26.375Z,99023.39
2022-10-05T02:55:02.206Z,99033.11
2022-10-05T02:57:40.294Z,99039.52
2022-10-05T03:00:17.563Z,99046.67
2022-10-05T03:03:02.462Z,99051.26
2022-10-05T03:05:40.636Z,99051.39
2022-10-05T03:08:23.277Z,99045.14
2022-10-05T03:11:05.624Z,99045.54
2022-10-05T03:13:49.442Z,99042.40
2022-10-05T03:16:37.130Z,99034.23
2022-10-05T03:19:23.209Z,99029.92
2022-10-05T03:22:02.860Z,99023.52
2022-10-05T03:25:00.433Z,99015.96
2022-10-05T03:27:42.569Z,99009.51
2022-10-05T03:30:20.070Z,99000.34
2022-10-05T03:33:04.251Z,98985.75
2022-10-05T03:35:46.809Z,98982.35
2022-10-05T03:38:27.893Z,98981.08
2022-10-05T03:41:10.000Z,98973.80
2022-10-05T03:44:12.065Z,98968.80
2022-10-05T03:46:56.204Z,98959.68
2022-10-05T03:49:42.204Z,98959.03
2022-10-05T03:52:27.075Z,98956.02
2022-10-05T03:55:05.105Z,98967.14
2022-10-05T03:57:40.102Z,98965.77
2022-10-05T04:00:18.420Z,98972.80
2022-10-05T04:03:01.098Z,98979.10
2022-10-05T04:05:39.649Z,98989.13
2022-10-05T04:08:22.121Z,99003.30
2022-10-05T04:10:57.260Z,99003.88
2022-10-05T04:13:35.582Z,98997.87
2022-10-05T04:16:14.151Z,98986.46
2022-10-05T04:18:51.468Z,98971.05
2022-10-05T04:21:34.329Z,98957.77
2022-10-05T04:24:12.550Z,98955.56
2022-10-05T04:26:51.961Z,98954.42
2022-10-05T04:29:40.742Z,98952.59
2022-10-05T04:32:30.001Z,98953.58
2022-10-05T04:35:25.361Z,98954.50
2022-10-05T04:38:04.909Z,98953.19
2022-10-05T04:40:49.567Z,98959.94
2022-10-05T04:43:33.722Z,98957.20
2022-10-05T04:46:19.645Z,98956.70
2022-10-05T04:49:15.311Z,98964.45
2022-10-05T04:51:57.690Z,98970.17
2022-10-05T04:54:44.754Z,98971.02
2022-10-05T04:57:23.277Z,98976.97
2022-10-05T05:00:06.349Z,98985.98
2022-10-05T05:03:23.819Z,98987.24
2022-10-05T05:06:17.259Z,98984.08
2022-10-05T05:09:30.801Z,98980.24
2022-10-05T05:12:30.167Z,98968.46
2022-10-05T05:15:23.919Z,98971.70
2022-10-05T05:18:20.728Z,98975.45
2022-10-05T05:21:03.453Z,98983.46
2022-10-05T05:23:43.375Z,98988.29
2022-10-05T05:26:25.073Z,98980.19
2022-10-05T05:29:06.652Z,98976.23
2022-10-05T05:31:46.899Z,98977.34
2022-10-05T05:34:26.749Z,98974.51
2022-10-05T05:37:06.319Z,98968.38
2022-10-05T05:39:50.595Z,98963.79
2022-10-05T05:42:39.222Z,98963.15
2022-10-05T05:45:23.893Z,98964.21
2022-10-05T05:48:00.025Z,98967.24
2022-10-05T05:50:49.967Z,98978.82
2022-10-05T05:53:26.805Z,98985.83
2022-10-05T05:56:09.598Z,98987.41
2022-10-05T05:58:50.154Z,98991.78
2022-10-05T06:01:33.172Z,98992.38
2022-10-05T06:04:15.334Z,98990.66
2022-10-05T06:06:52.337Z,98987.77
2022-10-05T06:09:32.043Z,98985.25
2022-10-05T06:12:22.235Z,98989.64
2022-10-05T06:14:59.513Z,98980.05
2022-10-05T06:18:40.081Z,98989.05
2022-10-05T06:21:44.598Z,98996.16
2022-10-05T06:25:06.851Z,98994.98
2022-10-05T06:27:59.844Z,98995.15
2022-10-05T06:30:42.905Z,98986.13
2022-10-05T06:33:26.329Z,98979.77
2022-10-05T06:36:13.230Z,98976.73
2022-10-05T06:39:04.226Z,98967.79
2022-10-05T06:41:50.856Z,98971.39
2022-10-05T06:44:28.004Z,98966.68
2022-10-05T06:47:35.943Z,98961.80
2022-10-05T06:50:38.009Z,98957.13
2022-10-05T06:53:34.896Z,98954.42
2022-10-05T06:56:16.337Z,98956.65
2022-10-05T06:58:57.476Z,98959.23
2022-10-05T07:01:45.174Z,98967.46
2022-10-05T07:04:36.747Z,98967.91
2022-10-05T07:07:21.767Z,98971.02
2022-10-05T07:10:12.328Z,98972.20
2022-10-05T07:12:55.616Z,98969.77
2022-10-05T07:15:53.483Z,98969.12
2022-10-05T07:18:37.657Z,98963.63
2022-10-05T07:21:18.229Z,98965.95
2022-10-05T07:24:00.599Z,98963.33
2022-10-05T07:26:39.597Z,98967.61
2022-10-05T07:29:29.265Z,98973.55
2022-10-05T07:32:13.003Z,98974.10
2022-10-05T07:34:54.981Z,98979.27
2022-10-05T07:37:54.484Z,98977.03
2022-10-05T07:40:33.890Z,98980.13
2022-10-05T07:43:23.271Z,98980.50
2022-10-05T07:46:06.014Z,98975.28
2022-10-05T07:48:53.315Z,98977.75
2022-10-05T07:51:34.751Z,98978.16
2022-10-05T07:54:25.491Z,98983.11
2022-10-05T07:57:06.375Z,98979.31
2022-10-05T07:59:46.562Z,98982.47
2022-10-05T08:02:28.406Z,98979.13
2022-10-05T08:05:10.875Z,98981.70
2022-10-05T08:07:43.315Z,98979.20
2022-10-05T08:10:31.865Z,98979.48
2022-10-05T08:13:13.596Z,98984.92
2022-10-05T08:15:48.529Z,98982.11
2022-10-05T08:18:27.816Z,98977.81
2022-10-05T08:21:00.767Z,98976.65
2022-10-05T08:23:43.858Z,98985.92
2022-10-05T08:26:23.674Z,98987.23
2022-10-05T08:29:08.208Z,98977.11
2022-10-05T08:31:46.322Z,98982.46
2022-10-05T08:34:27.346Z,98984.84
2022-10-05T08:37:05.289Z,98983.65
2022-10-05T08:39:42.732Z,98979.98
2022-10-05T08:42:45.066Z,98991.57
2022-10-05T08:45:45.924Z,98979.95
2022-10-05T08:48:35.998Z,98968.34
2022-10-05T08:51:44.166Z,98955.65
2022-10-05T08:54:36.825Z,98947.73
2022-10-05T08:57:43.838Z,98945.42
2022-10-05T09:00:19.911Z,98950.41
2022-10-05T09:03:29.862Z,98948.95
2022-10-05T09:06:24.337Z,98956.80
2022-10-05T09:09:15.503Z,98942.39
2022-10-05T09:12:04.367Z,98935.42
2022-10-05T09:15:01.328Z,98929.52
2022-10-05T09:18:25.483Z,98926.89
2022-10-05T09:21:02.725Z,98924.73
2022-10-05T09:23:42.980Z,98924.21
2022-10-05T09:26:46.187Z,98926.04
2022-10-05T09:29:55.180Z,98932.09
2022-10-05T09:33:09.343Z,98934.59
2022-10-05T09:36:15.684Z,98935.02
2022-10-05T09:39:10.682Z,98940.94
2022-10-05T09:42:09.185Z,98942.15
2022-10-05T09:45:21.130Z,98946.11
2022-10-05T09:48:15.837Z,98942.67
2022-10-05T09:51:09.678Z,98949.34
2022-10-05T09:54:13.895Z,98947.90
2022-10-05T09:57:12.051Z,98956.46
2022-10-05T10:00:21.828Z,98956.56
2022-10-05T10:03:21.414Z,98953.78
2022-10-05T10:06:15.159Z,98960.40
2022-10-05T10:08:59.740Z,98960.14
2022-10-05T10:11:52.151Z,98955.02
2022-10-05T10:14:54.204Z,98958.71
2022-10-05T10:17:45.028Z,98957.67
2022-10-05T10:20:27.870Z,98962.41
2022-10-05T10:23:25.360Z,98958.16
2022-10-05T10:26:19.687Z,98959.33
2022-10-05T10:29:30.327Z,98963.04
2022-10-05T10:32:19.903Z,98960.96
2022-10-05T10:35:20.151Z,98960.92
2022-10-05T10:38:24.881Z,98959.39
2022-10-05T10:41:36.503Z,98961.44
2022-10-05T10:44:47.674Z,98963.15
2022-10-05T10:47:51.988Z,98961.42
2022-10-05T10:51:02.102Z,98961.20
2022-10-05T10:53:52.946Z,98961.64
2022-10-05T10:56:55.294Z,98957.89
2022-10-05T11:00:04.841Z,98957.86
2022-10-05T11:02:59.564Z,98960.29
2022-10-05T11:06:08.470Z,98954.41
2022-10-05T11:09:02.754Z,98956.83
2022-10-05T11:11:58.786Z,98956.73
2022-10-05T11:15:06.576Z,98949.90
2022-10-05T11:17:58.209Z,98947.96
2022-10-05T11:21:06.860Z,98951.63
2022-10-05T11:24:01.274Z,98948.90
2022-10-05T11:26:59.815Z,98943.98
2022-10-05T11:30:07.041Z,98941.18
2022-10-05T11:33:04.006Z,98940.20
2022-10-05T11:35:52.122Z,98937.52
2022-10-05T11:38:48.318Z,98933.77
2022-10-05T11:42:04.025Z,98923.77
2022-10-05T11:45:14.000Z,98918.63
2022-10-05T11:48:04.294Z,98928.68
2022-10-05T11:50:40.897Z,98941.95
2022-10-05T11:53:21.041Z,98944.27
2022-10-05T11:56:04.305Z,98925.85
2022-10-05T11:58:43.076Z,98915.49
2022-10-05T12:01:27.187Z,98915.91
2022-10-05T12:04:07.415Z,98915.94
2022-10-05T12:06:54.846Z,98913.29
2022-10-05T12:10:03.290Z,98911.13
2022-10-05T12:12:44.375Z,98902.71
2022-10-05T12:15:26.564Z,98898.33
2022-10-05T12:18:08.355Z,98897.32
2022-10-05T12:20:47.541Z,98897.27
2022-10-05T12:23:28.954Z,98908.21
2022-10-05T12:26:04.960Z,98905.91
2022-10-05T12:28:42.390Z,98909.31
2022-10-05T12:31:31.783Z,98907.09
2022-10-05T12:34:14.140Z,98904.14
2022-10-05T12:37:04.220Z,98898.85
2022-10-05T12:39:48.935Z,98910.04
2022-10-05T12:42:31.324Z,98911.58
2022-10-05T12:45:17.668Z,98907.59
2022-10-05T12:48:06.510Z,98903.86
2022-10-05T12:50:43.162Z,98910.92
2022-10-05T12:53:30.001Z,98918.50
2022-10-05T12:56:10.650Z,98918.27
2022-10-05T12:58:52.883Z,98914.59
2022-10-05T13:01:35.133Z,98907.92
2022-10-05T13:04:19.912Z,98903.56
2022-10-05T13:07:11.664Z,98900.00
2022-10-05T13:09:53.152Z,98902.59
2022-10-05T13:12:36.285Z,98895.92
2022-10-05T13:15:16.541Z,98887.75
2022-10-05T13:17:58.662Z,98873.89
2022-10-05T13:20:35.349Z,98867.19
2022-10-05T13:23:14.040Z,98866.00
2022-10-05T13:25:53.524Z,98863.48
2022-10-05T13:28:32.688Z,98859.28
2022-10-05T13:31:14.062Z,98853.98
2022-10-05T13:34:02.592Z,98853.16
2022-10-05T13:36:45.076Z,98854.77
2022-10-05T13:39:39.441Z,98847.98
2022-10-05T13:42:16.564Z,98843.38
2022-10-05T13:44:54.825Z,98842.83
2022-10-05T13:47:35.914Z,98846.79
2022-10-05T13:50:18.357Z,98848.02
2022-10-05T13:52:57.471Z,98849.49
2022-10-05T13:55:42.013Z,98843.54
2022-10-05T13:58:25.009Z,98844.09
2022-10-05T14:00:59.760Z,98849.09
2022-10-05T14:03:35.052Z,98848.39
2022-10-05T14:06:14.478Z,98848.77
2022-10-05T14:08:53.080Z,98843.48
2022-10-05T14:11:31.376Z,98845.17
2022-10-05T14:14:14.853Z,98845.60
2022-10-05T14:16:55.262Z,98839.92
2022-10-05T14:19:28.054Z,98844.98
2022-10-05T14:22:12.733Z,98844.20
2022-10-05T14:24:55.528Z,98845.36
2022-10-05T14:27:30.320Z,98836.31
2022-10-05T14:30:18.792Z,98836.73
2022-10-05T14:32:56.958Z,98840.45
2022-10-05T14:35:31.930Z,98842.96
2022-10-05T14:38:18.562Z,98841.98
2022-10-05T14:41:05.618Z,98838.08
2022-10-05T14:43:38.360Z,98832.69
2022-10-05T14:46:29.188Z,98834.02
2022-10-05T14:49:25.823Z,98828.67
2022-10-05T14:51:58.888Z,98833.27
2022-10-05T14:54:36.780Z,98836.11
2022-10-05T14:57:19.576Z,98831.02
2022-10-05T15:00:10.486Z,98827.20
2022-10-05T15:03:18.812Z,98828.66
2022-10-05T15:05:54.841Z,98821.15
2022-10-05T15:08:41.811Z,98816.42
2022-10-05T15:11:25.377Z,98819.73
2022-10-05T15:13:59.141Z,98822.69
2022-10-05T15:16:41.139Z,98817.37
2022-10-05T15:19:20.992Z,98816.95
2022-10-05T15:22:06.170Z,98815.95
2022-10-05T15:24:45.500Z,98815.39
2022-10-05T15:27:34.195Z,98817.06
2022-10-05T15:30:12.677Z,98816.86
2022-10-05T15:33:00.859Z,98817.24
2022-10-05T15:35:40.539Z,98815.70
2022-10-05T15:38:26.543Z,98810.17
2022-10-05T15:41:11.362Z,98807.00
2022-10-05T15:43:53.797Z,98813.27
2022-10-05T15:46:35.466Z,98817.69
2022-10-05T15:49:19.362Z,98816.73
2022-10-05T15:52:02.632Z,98816.60
2022-10-05T15:55:06.489Z,98818.55
2022-10-05T15:57:45.760Z,98819.70
2022-10-05T16:00:23.268Z,98810.10
2022-10-05T16:03:06.287Z,98815.79
2022-10-05T16:06:04.558Z,98809.13
2022-10-05T16:08:56.350Z,98809.92
2022-10-05T16:11:48.071Z,98803.52
2022-10-05T16:14:33.476Z,98803.41
2022-10-05T16:17:25.455Z,98801.27
2022-10-05T16:20:12.515Z,98808.21
2022-10-05T16:22:55.396Z,98805.91
2022-10-05T16:25:35.376Z,98803.68
2022-10-05T16:28:18.495Z,98800.64
2022-10-05T16:30:59.812Z,98798.70
2022-10-05T16:33:46.887Z,98805.59
2022-10-05T16:36:36.818Z,98795.80
2022-10-05T16:39:16.885Z,98799.71
2022-10-05T16:41:57.323Z,98804.39
2022-10-05T16:44:39.772Z,98803.96
2022-10-05T16:47:38.883Z,98801.63
2022-10-05T16:50:29.095Z,98801.02
2022-10-05T16:53:04.846Z,98800.69
2022-10-05T16:55:42.072Z,98805.08
2022-10-05T16:58:21.667Z,98806.65
2022-10-05T17:01:06.803Z,98806.73
2022-10-05T17:03:50.913Z,98804.80
2022-10-05T17:06:41.378Z,98802.41
2022-10-05T17:09:23.797Z,98808.13
2022-10-05T17:12:13.418Z,98809.61
2022-10-05T17:15:01.879Z,98816.21
2022-10-05T17:17:49.183Z,98810.85
2022-10-05T17:20:42.931Z,98808.95
2022-10-05T17:23:32.771Z,98808.35
2022-10-05T17:26:34.275Z,98810.79
2022-10-05T17:29:18.325Z,98809.00
2022-10-05T17:32:33.534Z,98805.70
2022-10-05T17:35:19.328Z,98802.90
2022-10-05T17:38:24.732Z,98801.06
2022-10-05T17:41:26.199Z,98804.86
2022-10-05T17:44:20.652Z,98794.66
2022-10-05T17:46:54.957Z,98796.89
2022-10-05T17:49:48.031Z,98799.79
2022-10-05T17:52:45.210Z,98791.89
2022-10-05T17:55:36.033Z,98791.40
2022-10-05T17:59:01.933Z,98788.55
2022-10-05T18:01:36.195Z,98785.02
2022-10-05T18:04:34.507Z,98786.42
2022-10-05T18:07:19.053Z,98789.96
2022-10-05T18:10:02.079Z,98794.79
2022-10-05T18:12:48.464Z,98794.70
2022-10-05T18:15:48.658Z,98792.25
2022-10-05T18:18:57.371Z,98795.63
2022-10-05T18:21:36.048Z,98793.02
2022-10-05T18:24:28.181Z,98784.27
2022-10-05T18:27:16.922Z,98786.18
2022-10-05T18:30:05.704Z,98781.35
2022-10-05T18:33:16.971Z,98786.80
2022-10-05T18:36:01.980Z,98789.35
2022-10-05T18:38:57.205Z,98789.02
2022-10-05T18:41:41.474Z,98788.29
2022-10-05T18:44:31.242Z,98786.39
2022-10-05T18:47:13.445Z,98790.63
2022-10-05T18:49:57.429Z,98792.71
2022-10-05T18:52:43.819Z,98794.76
2022-10-05T18:55:24.899Z,98795.66
2022-10-05T18:58:21.414Z,98794.23
2022-10-05T19:01:10.730Z,98795.84
2022-10-05T19:03:55.086Z,98803.15
2022-10-05T19:06:31.051Z,98808.10
2022-10-05T19:09:16.212Z,98804.90
2022-10-05T19:11:56.098Z,98803.90
2022-10-05T19:14:38.697Z,98802.05
2022-10-05T19:17:24.876Z,98802.20
2022-10-05T19:20:10.893Z,98802.75
2022-10-05T19:22:54.090Z,98805.55
2022-10-05T19:25:37.837Z,98806.66
2022-10-05T19:28:27.781Z,98799.36
2022-10-05T19:31:21.446Z,98797.91
2022-10-05T19:34:07.057Z,98800.11
2022-10-05T19:36:54.790Z,98796.80
2022-10-05T19:39:39.606Z,98795.48
2022-10-05T19:42:32.191Z,98787.76
2022-10-05T19:45:18.922Z,98785.71
2022-10-05T19:48:01.933Z,98788.10
2022-10-05T19:50:35.678Z,98791.40
2022-10-05T19:53:17.269Z,98793.04
2022-10-05T19:56:20.680Z,98793.46
2022-10-05T19:58:57.438Z,98792.81
2022-10-05T20:01:35.565Z,98791.73
2022-10-05T20:04:09.527Z,98793.94
2022-10-05T20:06:42.353Z,98797.10
2022-10-05T20:09:24.703Z,98796.88
2022-10-05T20:12:01.348Z,98799.29
2022-10-05T20:14:58.552Z,98799.10
2022-10-05T20:17:49.593Z,98800.52
2022-10-05T20:20:26.449Z,98800.84
2022-10-05T20:23:25.161Z,98806.45
2022-10-05T20:26:14.309Z,98807.11
2022-10-05T20:28:47.826Z,98811.27
2022-10-05T20:31:20.499Z,98809.04
2022-10-05T20:33:52.773Z,98811.52
2022-10-05T20:36:24.808Z,98808.84
2022-10-05T20:38:56.937Z,98812.25
2022-10-05T20:41:29.060Z,98807.78
2022-10-05T20:44:01.137Z,98813.40
2022-10-05T20:46:34.087Z,98815.64
2022-10-05T20:49:09.683Z,98807.83
2022-10-05T20:51:44.375Z,98812.41
2022-10-05T20:54:19.133Z,98806.10
2022-10-05T20:56:51.508Z,98804.19
2022-10-05T20:59:27.202Z,98806.21
2022-10-05T21:01:59.619Z,98805.77
2022-10-05T21:04:40.872Z,98807.23
2022-10-05T21:07:15.539Z,98807.52
2022-10-05T21:09:47.826Z,98806.29
2022-10-05T21:12:19.881Z,98807.01
2022-10-05T21:14:52.901Z,98804.73
2022-10-05T21:17:28.112Z,98809.48
2022-10-05T21:20:00.286Z,98809.98
2022-10-05T21:22:32.730Z,98811.02
2022-10-05T21:25:09.150Z,98810.61
2022-10-05T21:27:44.409Z,98815.14
2022-10-05T21:30:17.061Z,98808.15
2022-10-05T21:32:49.259Z,98814.78
2022-10-05T21:35:21.639Z,98805.52
2022-10-05T21:37:56.295Z,98809.77
2022-10-05T21:40:28.633Z,98815.36
2022-10-05T21:43:00.883Z,98817.38
2022-10-05T21:45:33.587Z,98815.14
2022-10-05T21:48:06.509Z,98812.84
2022-10-05T21:50:40.023Z,98817.48
2022-10-05T21:53:14.430Z,98813.54
2022-10-05T21:55:50.142Z,98814.08
2022-10-05T21:58:23.999Z,98815.73
2022-10-05T22:00:56.127Z,98821.10
2022-10-05T22:03:28.881Z,98824.67
2022-10-05T22:06:01.046Z,98823.43
2022-10-05T22:08:35.116Z,98826.73
2022-10-05T22:11:15.166Z,98831.59
2022-10-05T22:13:49.418Z,98835.73
2022-10-05T22:16:24.647Z,98839.99
2022-10-05T22:18:57.401Z,98834.58
2022-10-05T22:21:32.135Z,98830.77
2022-10-05T22:24:06.152Z,98834.10
2022-10-05T22:26:38.616Z,98837.95
2022-10-05T22:29:10.840Z,98836.77
2022-10-05T22:31:43.178Z,98834.75
2022-10-05T22:34:19.584Z,98838.26
2022-10-05T22:36:52.094Z,98843.27
2022-10-05T22:39:24.243Z,98837.30
2022-10-05T22:41:58.105Z,98844.84
2022-10-05T22:44:33.392Z,98848.77
2022-10-05T22:47:06.380Z,98847.99
2022-10-05T22:49:38.447Z,98853.51
2022-10-05T22:52:10.501Z,98856.30
2022-10-05T22:54:42.752Z,98859.72
2022-10-05T22:57:17.277Z,98858.56
2022-10-05T22:59:49.714Z,98864.98
2022-10-05T23:02:22.115Z,98866.98
2022-10-05T23:04:54.245Z,98870.98
2022-10-05T23:07:26.416Z,98867.58
2022-10-05T23:09:59.274Z,98873.86
2022-10-05T23:12:34.766Z,98874.20
2022-10-05T23:15:09.499Z,98876.38
2022-10-05T23:17:41.833Z,98878.10
2022-10-05T23:20:14.278Z,98879.92
2022-10-05T23:22:46.294Z,98883.36
2022-10-05T23:25:19.178Z,98886.46
2022-10-05T23:27:51.921Z,98892.23
2022-10-05T23:30:24.329Z,98893.84
2022-10-05T23:32:57.657Z,98890.08
2022-10-05T23:35:29.843Z,98901.23
2022-10-05T23:38:02.163Z,98903.02
2022-10-05T23:40:34.270Z,98907.53
2022-10-05T23:43:06.911Z,98908.85
2022-10-05T23:45:39.240Z,98906.89
2022-10-05T23:48:11.903Z,98911.65
2022-10-05T23:50:44.126Z,98909.27
2022-10-05T23:53:17.678Z,98914.05
2022-10-05T23:55:52.611Z,98917.20
2022-10-05T23:58:27.699Z,98915.89
